createdAt,value
2019-04-01T00:01:33.583Z,63.13
2019-04-01T00:04:04.863Z,82.37
2019-04-01T00:06:36.301Z,81.20
2019-04-01T00:09:07.489Z,91.63
2019-04-01T00:11:38.696Z,84.40
2019-04-01T00:14:09.916Z,102.72
2019-04-01T00:16:41.183Z,92.00
2019-04-01T00:19:12.521Z,81.72
2019-04-01T00:21:44.671Z,79.17
2019-04-01T00:24:16.405Z,69.90
2019-04-01T00:26:47.713Z,61.02
2019-04-01T00:29:19.134Z,57.00
2019-04-01T00:31:50.423Z,55.38
2019-04-01T00:34:21.630Z,54.73
2019-04-01T00:36:52.839Z,92.85
2019-04-01T00:39:24.248Z,72.17
2019-04-01T00:42:13.589Z,95.50
2019-04-01T00:44:44.988Z,89.80
2019-04-01T00:47:16.344Z,87.85
2019-04-01T00:49:47.684Z,88.97
2019-04-01T00:52:19.974Z,89.80
2019-04-01T00:54:51.327Z,97.35
2019-04-01T00:57:22.515Z,93.87
2019-04-01T00:59:53.923Z,93.90
2019-04-01T01:02:25.316Z,98.05
2019-04-01T01:04:56.719Z,103.17
2019-04-01T01:07:28.049Z,117.55
2019-04-01T01:09:59.395Z,125.97
2019-04-01T01:12:30.748Z,118.20
2019-04-01T01:15:02.130Z,128.65
2019-04-01T01:17:33.412Z,150.32
2019-04-01T01:20:06.649Z,162.92
2019-04-01T01:22:37.916Z,168.78
2019-04-01T01:25:09.203Z,193.62
2019-04-01T01:27:40.430Z,168.57
2019-04-01T01:30:11.843Z,140.97
2019-04-01T01:32:43.082Z,146.62
2019-04-01T01:35:14.331Z,141.37
2019-04-01T01:37:45.575Z,157.47
2019-04-01T01:40:16.853Z,149.77
2019-04-01T01:42:48.143Z,148.50
2019-04-01T01:45:19.500Z,138.07
2019-04-01T01:47:50.717Z,145.38
2019-04-01T01:50:21.995Z,148.40
2019-04-01T01:52:53.347Z,134.35
2019-04-01T01:55:24.699Z,129.68
2019-04-01T01:57:55.937Z,135.28
2019-04-01T02:00:28.324Z,123.70
2019-04-01T02:02:59.616Z,113.65
2019-04-01T02:05:30.965Z,114.10
2019-04-01T02:08:02.186Z,117.33
2019-04-01T02:10:33.532Z,118.72
2019-04-01T02:13:04.767Z,116.45
2019-04-01T02:15:36.100Z,125.30
2019-04-01T02:18:07.395Z,117.20
2019-04-01T02:20:38.692Z,112.62
2019-04-01T02:23:10.049Z,116.50
2019-04-01T02:25:41.350Z,106.22
2019-04-01T02:28:12.694Z,100.82
2019-04-01T02:30:43.936Z,101.50
2019-04-01T02:33:15.384Z,105.52
2019-04-01T02:35:46.602Z,104.10
2019-04-01T02:38:17.813Z,101.55
2019-04-01T02:40:48.989Z,106.15
2019-04-01T02:43:20.330Z,97.78
2019-04-01T02:45:51.779Z,102.35
2019-04-01T02:48:22.989Z,94.30
2019-04-01T02:50:54.525Z,107.15
2019-04-01T02:53:25.898Z,97.55
2019-04-01T02:55:57.158Z,98.70
2019-04-01T02:58:28.419Z,91.65
2019-04-01T03:00:59.818Z,104.55
2019-04-01T03:03:31.154Z,94.30
2019-04-01T03:06:02.456Z,88.85
2019-04-01T03:08:33.769Z,90.03
2019-04-01T03:11:09.840Z,99.62
2019-04-01T03:13:38.403Z,104.00
2019-04-01T03:16:09.784Z,86.65
2019-04-01T03:18:41.869Z,87.95
2019-04-01T03:21:13.125Z,91.37
2019-04-01T03:23:44.499Z,91.67
2019-04-01T03:26:15.723Z,93.87
2019-04-01T03:28:47.152Z,89.42
2019-04-01T03:31:18.528Z,118.70
2019-04-01T03:33:50.145Z,101.50
2019-04-01T03:36:21.513Z,102.62
2019-04-01T03:38:52.833Z,99.42
2019-04-01T03:41:24.185Z,89.70
2019-04-01T03:43:55.350Z,96.78
2019-04-01T03:46:26.738Z,104.25
2019-04-01T03:48:57.958Z,112.83
2019-04-01T03:51:29.315Z,92.67
2019-04-01T03:54:00.602Z,97.50
2019-04-01T03:56:32.028Z,108.15
2019-04-01T03:59:03.406Z,100.53
2019-04-01T04:01:34.676Z,97.62
2019-04-01T04:04:06.029Z,82.55
2019-04-01T04:06:37.369Z,77.97
2019-04-01T04:09:08.569Z,79.75
2019-04-01T04:11:39.755Z,81.92
2019-04-01T04:14:11.019Z,78.52
2019-04-01T04:16:42.390Z,78.97
2019-04-01T04:19:13.746Z,70.17
2019-04-01T04:21:45.042Z,80.17
2019-04-01T04:24:16.336Z,81.37
2019-04-01T04:26:47.633Z,78.95
2019-04-01T04:29:18.947Z,81.95
2019-04-01T04:31:50.237Z,78.83
2019-04-01T04:34:21.463Z,75.87
2019-04-01T04:36:52.767Z,79.05
2019-04-01T04:39:24.050Z,76.85
2019-04-01T04:41:55.522Z,79.25
2019-04-01T04:44:26.782Z,79.30
2019-04-01T04:46:58.086Z,69.35
2019-04-01T04:49:29.547Z,67.35
2019-04-01T04:52:00.819Z,68.17
2019-04-01T04:54:33.928Z,74.55
2019-04-01T04:57:05.331Z,62.23
2019-04-01T04:59:36.636Z,58.25
2019-04-01T05:02:08.030Z,59.23
2019-04-01T05:04:39.385Z,57.85
2019-04-01T05:07:10.668Z,60.58
2019-04-01T05:09:41.934Z,52.03
2019-04-01T05:12:13.307Z,45.12
2019-04-01T05:14:44.613Z,109.40
2019-04-01T05:17:16.039Z,47.95
2019-04-01T05:19:47.558Z,46.05
2019-04-01T05:22:18.897Z,48.20
2019-04-01T05:24:50.142Z,43.08
2019-04-01T05:27:21.594Z,39.63
2019-04-01T05:29:54.256Z,33.48
2019-04-01T05:32:26.323Z,34.75
2019-04-01T05:34:57.652Z,34.92
2019-04-01T05:37:28.917Z,34.05
2019-04-01T05:40:00.383Z,30.80
2019-04-01T05:42:31.758Z,30.97
2019-04-01T05:45:03.073Z,33.08
2019-04-01T05:47:36.300Z,30.02
2019-04-01T05:50:07.804Z,37.48
2019-04-01T05:52:39.328Z,71.72
2019-04-01T05:55:10.763Z,74.30
2019-04-01T05:57:42.111Z,78.12
2019-04-01T06:00:15.168Z,75.80
2019-04-01T06:02:46.556Z,69.42
2019-04-01T06:05:17.979Z,69.65
2019-04-01T06:07:49.345Z,63.83
2019-04-01T06:10:20.700Z,63.52
2019-04-01T06:12:52.573Z,60.28
2019-04-01T06:15:23.891Z,60.35
2019-04-01T06:17:55.336Z,60.78
2019-04-01T06:20:26.612Z,59.30
2019-04-01T06:22:58.389Z,58.42
2019-04-01T06:25:30.124Z,65.05
2019-04-01T06:28:01.541Z,62.27
2019-04-01T06:30:32.921Z,67.53
2019-04-01T06:33:04.212Z,57.85
2019-04-01T06:35:35.665Z,55.55
2019-04-01T06:38:06.995Z,53.23
2019-04-01T06:40:39.467Z,49.30
2019-04-01T06:43:10.896Z,50.73
2019-04-01T06:45:43.880Z,138.85
2019-04-01T06:48:15.296Z,50.33
2019-04-01T06:50:46.731Z,136.07
2019-04-01T06:53:19.736Z,43.35
2019-04-01T06:55:50.976Z,30.95
2019-04-01T06:58:22.351Z,28.15
2019-04-01T07:00:53.676Z,37.93
2019-04-01T07:03:26.090Z,31.50
2019-04-01T07:05:57.430Z,27.35
2019-04-01T07:08:28.816Z,27.70
2019-04-01T07:11:01.024Z,23.98
2019-04-01T07:13:32.518Z,25.95
2019-04-01T07:16:15.286Z,23.83
2019-04-01T07:18:38.206Z,23.02
2019-04-01T07:21:09.587Z,22.85
2019-04-01T07:23:41.081Z,22.42
2019-04-01T07:26:13.266Z,24.67
2019-04-01T07:28:45.645Z,22.45
2019-04-01T07:31:17.022Z,25.37
2019-04-01T07:33:48.526Z,22.95
2019-04-01T07:36:21.445Z,22.98
2019-04-01T07:38:52.894Z,27.10
2019-04-01T07:41:24.229Z,23.55
2019-04-01T07:43:55.512Z,25.97
2019-04-01T07:46:26.852Z,22.27
2019-04-01T07:48:58.204Z,26.02
2019-04-01T07:51:29.739Z,25.40
2019-04-01T07:54:01.163Z,23.50
2019-04-01T07:56:32.551Z,30.12
2019-04-01T07:59:04.843Z,25.25
2019-04-01T08:01:36.265Z,23.57
2019-04-01T08:04:07.650Z,31.93
2019-04-01T08:06:39.499Z,26.52
2019-04-01T08:09:11.885Z,24.98
2019-04-01T08:11:43.195Z,25.72
2019-04-01T08:14:16.101Z,25.65
2019-04-01T08:16:47.480Z,28.15
2019-04-01T08:19:18.901Z,26.17
2019-04-01T08:21:52.316Z,32.83
2019-04-01T08:24:23.370Z,39.25
2019-04-01T08:26:54.704Z,44.38
2019-04-01T08:29:30.487Z,44.65
2019-04-01T08:32:00.372Z,42.67
2019-04-01T08:34:31.638Z,40.08
2019-04-01T08:37:04.000Z,38.55
2019-04-01T08:39:38.243Z,48.60
2019-04-01T08:42:09.717Z,47.70
2019-04-01T08:44:44.468Z,42.55
2019-04-01T08:47:20.196Z,44.23
2019-04-01T08:49:52.548Z,48.23
2019-04-01T08:52:27.406Z,44.70
2019-04-01T08:55:00.537Z,34.83
2019-04-01T08:57:33.470Z,29.50
2019-04-01T09:00:21.950Z,43.78
2019-04-01T09:02:56.703Z,38.23
2019-04-01T09:05:33.844Z,50.55
2019-04-01T09:08:10.014Z,45.17
2019-04-01T09:10:42.417Z,32.38
2019-04-01T09:13:14.034Z,30.05
2019-04-01T09:15:45.298Z,29.07
2019-04-01T09:18:16.803Z,22.73
2019-04-01T09:20:55.363Z,39.05
2019-04-01T09:23:24.545Z,13.60
2019-04-01T09:25:57.876Z,23.95
2019-04-01T09:31:02.934Z,19.37
2019-04-01T09:33:38.751Z,28.17
2019-04-01T09:36:12.441Z,27.27
2019-04-01T09:38:44.026Z,36.98
2019-04-01T09:41:15.446Z,31.30
2019-04-01T09:43:47.778Z,44.05
2019-04-01T09:46:20.959Z,43.30
2019-04-01T09:48:55.297Z,42.05
2019-04-01T09:51:47.509Z,39.27
2019-04-01T09:54:05.821Z,32.95
2019-04-01T09:56:37.490Z,35.63
2019-04-01T09:59:15.013Z,35.00
2019-04-01T10:01:54.556Z,37.15
2019-04-01T10:04:25.832Z,32.20
2019-04-01T10:06:59.774Z,27.10
2019-04-01T10:09:41.946Z,23.23
2019-04-01T10:12:15.614Z,31.57
2019-04-01T10:14:49.910Z,29.45
2019-04-01T10:19:56.022Z,40.52
2019-04-01T10:22:27.196Z,26.10
2019-04-01T10:24:59.923Z,18.92
2019-04-01T10:27:31.199Z,18.45
2019-04-01T10:30:02.660Z,26.33
2019-04-01T10:32:34.096Z,17.60
2019-04-01T10:35:07.322Z,30.97
2019-04-01T10:37:38.708Z,18.75
2019-04-01T10:40:09.971Z,17.25
2019-04-01T10:42:41.388Z,20.50
2019-04-01T10:45:12.681Z,25.43
2019-04-01T10:47:44.044Z,22.70
2019-04-01T10:50:15.493Z,31.57
2019-04-01T10:52:47.691Z,27.25
2019-04-01T10:55:19.043Z,30.50
2019-04-01T10:57:53.706Z,17.25
2019-04-01T11:00:23.318Z,29.32
2019-04-01T11:02:54.660Z,22.27
2019-04-01T11:05:26.098Z,28.70
2019-04-01T11:07:57.489Z,33.28
2019-04-01T11:10:28.838Z,16.40
2019-04-01T11:13:00.168Z,28.65
2019-04-01T11:15:32.712Z,29.20
2019-04-01T11:18:04.021Z,20.43
2019-04-01T11:20:35.279Z,30.25
2019-04-01T11:23:07.688Z,29.40
2019-04-01T11:25:40.987Z,28.77
2019-04-01T11:28:12.378Z,30.52
2019-04-01T11:30:44.677Z,29.60
2019-04-01T11:33:16.235Z,27.32
2019-04-01T11:35:47.659Z,22.00
2019-04-01T11:38:19.002Z,25.35
2019-04-01T11:40:50.411Z,22.87
2019-04-01T11:43:23.410Z,15.75
2019-04-01T11:45:54.709Z,24.92
2019-04-01T11:48:25.990Z,12.75
2019-04-01T11:50:58.275Z,22.75
2019-04-01T11:53:29.870Z,22.93
2019-04-01T11:56:02.514Z,13.13
2019-04-01T11:58:33.793Z,16.97
2019-04-01T12:01:05.007Z,15.10
2019-04-01T12:03:36.413Z,17.57
2019-04-01T12:06:07.698Z,15.95
2019-04-01T12:08:39.016Z,25.68
2019-04-01T12:11:10.408Z,22.80
2019-04-01T12:13:41.826Z,12.70
2019-04-01T12:16:13.160Z,19.90
2019-04-01T12:18:44.806Z,15.80
2019-04-01T12:21:16.457Z,17.57
2019-04-01T12:23:47.812Z,19.85
2019-04-01T12:26:19.050Z,17.92
2019-04-01T12:28:50.386Z,26.68
2019-04-01T12:31:22.010Z,28.62
2019-04-01T12:33:53.310Z,12.10
2019-04-01T12:36:27.657Z,19.65
2019-04-01T12:38:59.036Z,13.48
2019-04-01T12:41:30.254Z,15.80
2019-04-01T12:44:01.791Z,24.70
2019-04-01T12:46:33.065Z,27.93
2019-04-01T12:49:04.551Z,21.00
2019-04-01T12:51:35.912Z,25.05
2019-04-01T12:54:07.937Z,23.95
2019-04-01T12:56:39.355Z,26.62
2019-04-01T12:59:10.729Z,19.17
2019-04-01T13:01:42.125Z,27.30
2019-04-01T13:04:13.372Z,27.22
2019-04-01T13:06:47.906Z,30.50
2019-04-01T13:09:19.330Z,26.05
2019-04-01T13:11:51.828Z,30.62
2019-04-01T13:14:23.148Z,18.80
2019-04-01T13:16:54.611Z,32.08
2019-04-01T13:19:25.985Z,24.18
2019-04-01T13:21:57.885Z,19.20
2019-04-01T13:24:29.205Z,23.27
2019-04-01T13:27:01.122Z,33.00
2019-04-01T13:29:32.553Z,30.55
2019-04-01T13:32:03.949Z,18.15
2019-04-01T13:34:35.294Z,20.10
2019-04-01T13:37:06.539Z,32.63
2019-04-01T13:39:38.037Z,30.55
2019-04-01T13:42:09.349Z,32.13
2019-04-01T13:44:40.807Z,23.30
2019-04-01T13:47:12.085Z,31.57
2019-04-01T13:49:43.710Z,32.85
2019-04-01T13:52:14.994Z,31.23
2019-04-01T13:54:50.238Z,32.58
2019-04-01T13:57:21.648Z,24.47
2019-04-01T13:59:53.019Z,23.47
2019-04-01T14:02:26.609Z,30.57
2019-04-01T14:05:00.164Z,20.88
2019-04-01T14:07:31.528Z,32.58
2019-04-01T14:10:03.801Z,22.62
2019-04-01T14:12:35.895Z,32.05
2019-04-01T14:15:07.303Z,32.42
2019-04-01T14:17:38.817Z,31.68
2019-04-01T14:24:05.071Z,31.45
2019-04-01T14:26:36.349Z,28.65
2019-04-01T14:29:07.660Z,30.62
2019-04-01T14:31:40.476Z,26.05
2019-04-01T14:34:13.807Z,29.23
2019-04-01T14:36:44.781Z,19.75
2019-04-01T14:39:16.217Z,34.45
2019-04-01T14:41:47.590Z,36.05
2019-04-01T14:44:19.085Z,28.30
2019-04-01T14:46:50.458Z,25.45
2019-04-01T14:49:21.911Z,27.52
2019-04-01T14:51:53.242Z,22.77
2019-04-01T14:54:24.799Z,34.15
2019-04-01T14:56:56.978Z,30.90
2019-04-01T14:59:28.458Z,35.95
2019-04-01T15:02:03.827Z,22.77
2019-04-01T15:04:37.770Z,26.37
2019-04-01T15:07:09.266Z,29.00
2019-04-01T15:09:40.835Z,21.82
2019-04-01T15:12:12.207Z,35.73
2019-04-01T15:14:43.487Z,24.32
2019-04-01T15:17:17.341Z,30.60
2019-04-01T15:19:48.908Z,23.73
2019-04-01T15:22:20.299Z,41.05
2019-04-01T15:24:51.632Z,32.88
2019-04-01T15:27:22.985Z,26.33
2019-04-01T15:29:55.893Z,23.55
2019-04-01T15:32:27.182Z,25.32
2019-04-01T15:34:58.439Z,28.67
2019-04-01T15:37:32.148Z,19.67
2019-04-01T15:40:02.878Z,23.60
2019-04-01T15:42:35.058Z,27.02
2019-04-01T15:45:07.122Z,22.05
2019-04-01T15:47:41.484Z,25.68
2019-04-01T15:50:27.290Z,20.12
2019-04-01T15:52:46.218Z,16.60
2019-04-01T15:55:19.322Z,22.42
2019-04-01T15:57:52.144Z,17.60
2019-04-01T16:00:43.319Z,12.03
2019-04-01T16:03:15.357Z,19.00
2019-04-01T16:05:46.714Z,22.95
2019-04-01T16:08:18.266Z,15.10
2019-04-01T16:10:51.144Z,20.80
2019-04-01T16:13:25.656Z,15.48
2019-04-01T16:15:57.029Z,12.28
2019-04-01T16:18:31.164Z,20.30
2019-04-01T16:21:07.626Z,17.95
2019-04-01T16:23:40.992Z,17.55
2019-04-01T16:26:14.046Z,17.17
2019-04-01T16:28:48.590Z,18.52
2019-04-01T16:31:26.223Z,16.82
2019-04-01T16:34:05.065Z,20.80
2019-04-01T16:36:44.454Z,19.37
2019-04-01T16:39:18.614Z,14.98
2019-04-01T16:41:54.005Z,21.70
2019-04-01T16:44:29.459Z,21.33
2019-04-01T16:47:05.117Z,23.90
2019-04-01T16:49:38.017Z,17.60
2019-04-01T16:52:15.483Z,23.92
2019-04-01T16:54:49.113Z,19.62
2019-04-01T16:57:23.012Z,24.92
2019-04-01T16:59:59.138Z,27.27
2019-04-01T17:02:32.981Z,16.45
2019-04-01T17:05:06.027Z,21.93
2019-04-01T17:07:39.010Z,12.85
2019-04-01T17:10:11.425Z,20.08
2019-04-01T17:12:44.922Z,20.12
2019-04-01T17:15:16.368Z,14.63
2019-04-01T17:17:51.614Z,14.07
2019-04-01T17:20:23.631Z,21.95
2019-04-01T17:22:55.011Z,19.57
2019-04-01T17:25:27.767Z,19.67
2019-04-01T17:27:59.103Z,18.32
2019-04-01T17:30:30.379Z,17.52
2019-04-01T17:33:02.140Z,14.28
2019-04-01T17:35:33.520Z,11.60
2019-04-01T17:38:08.190Z,15.78
2019-04-01T17:40:41.879Z,13.48
2019-04-01T17:43:16.230Z,15.72
2019-04-01T17:45:48.490Z,15.63
2019-04-01T17:48:19.974Z,17.15
2019-04-01T17:50:53.544Z,13.28
2019-04-01T17:53:31.540Z,15.53
2019-04-01T17:56:05.994Z,13.60
2019-04-01T17:58:37.364Z,20.23
2019-04-01T18:01:10.405Z,13.15
2019-04-01T18:03:41.754Z,14.05
2019-04-01T18:06:12.970Z,18.30
2019-04-01T18:08:45.355Z,17.50
2019-04-01T18:11:16.569Z,13.20
2019-04-01T18:13:50.139Z,16.32
2019-04-01T18:16:25.451Z,22.93
2019-04-01T18:18:59.293Z,14.20
2019-04-01T18:21:32.103Z,16.32
2019-04-01T18:24:04.262Z,9.68
2019-04-01T18:26:35.561Z,16.95
2019-04-01T18:29:06.928Z,16.20
2019-04-01T18:31:38.913Z,14.47
2019-04-01T18:34:11.484Z,13.22
2019-04-01T18:36:43.874Z,21.50
2019-04-01T18:39:15.642Z,13.98
2019-04-01T18:41:47.359Z,18.70
2019-04-01T18:44:18.964Z,11.63
2019-04-01T18:46:50.468Z,17.30
2019-04-01T18:49:22.346Z,15.80
2019-04-01T18:51:55.363Z,15.80
2019-04-01T18:54:26.767Z,13.45
2019-04-01T18:56:58.362Z,15.40
2019-04-01T18:59:31.472Z,15.00
2019-04-01T19:02:02.768Z,13.13
2019-04-01T19:04:34.323Z,12.53
2019-04-01T19:07:05.793Z,16.87
2019-04-01T19:09:37.078Z,12.18
2019-04-01T19:12:08.534Z,13.05
2019-04-01T19:14:40.178Z,18.67
2019-04-01T19:17:11.646Z,15.58
2019-04-01T19:19:43.035Z,16.00
2019-04-01T19:22:15.636Z,14.98
2019-04-01T19:24:47.189Z,19.07
2019-04-01T19:27:20.088Z,19.50
2019-04-01T19:29:51.409Z,32.88
2019-04-01T19:32:27.163Z,16.25
2019-04-01T19:35:00.452Z,24.82
2019-04-01T19:37:34.017Z,21.87
2019-04-01T19:40:07.208Z,18.23
2019-04-01T19:42:39.890Z,24.18
2019-04-01T19:45:12.450Z,25.30
2019-04-01T19:47:47.962Z,22.75
2019-04-01T19:50:20.925Z,19.80
2019-04-01T19:52:55.743Z,20.23
2019-04-01T19:55:27.433Z,23.12
2019-04-01T19:58:04.916Z,20.32
2019-04-01T20:00:35.788Z,14.15
2019-04-01T20:03:10.795Z,28.40
2019-04-01T20:05:43.996Z,21.55
2019-04-01T20:08:16.355Z,17.10
2019-04-01T20:10:49.205Z,19.80
2019-04-01T20:13:24.377Z,16.35
2019-04-01T20:15:56.612Z,20.95
2019-04-01T20:18:30.737Z,34.70
2019-04-01T20:21:05.161Z,31.07
2019-04-01T20:23:40.044Z,30.60
2019-04-01T20:26:11.663Z,21.10
2019-04-01T20:28:43.554Z,23.83
2019-04-01T20:31:17.369Z,24.00
2019-04-01T20:33:51.679Z,13.80
2019-04-01T20:36:28.839Z,28.60
2019-04-01T20:39:00.679Z,18.85
2019-04-01T20:41:33.922Z,17.80
2019-04-01T20:44:06.091Z,22.42
2019-04-01T20:46:39.101Z,13.85
2019-04-01T20:49:10.497Z,10.68
2019-04-01T20:51:41.777Z,23.55
2019-04-01T20:54:13.169Z,18.50
2019-04-01T20:56:44.469Z,21.10
2019-04-01T20:59:17.574Z,22.87
2019-04-01T21:01:50.551Z,21.12
2019-04-01T21:04:22.114Z,24.52
2019-04-01T21:06:55.026Z,24.37
2019-04-01T21:09:26.374Z,23.35
2019-04-01T21:11:57.851Z,17.15
2019-04-01T21:14:29.087Z,13.93
2019-04-01T21:17:00.320Z,16.20
2019-04-01T21:19:33.367Z,17.95
2019-04-01T21:22:04.626Z,21.00
2019-04-01T21:24:35.943Z,21.48
2019-04-01T21:27:10.418Z,20.82
2019-04-01T21:29:44.053Z,25.10
2019-04-01T21:32:20.210Z,21.27
2019-04-01T21:34:51.588Z,15.63
2019-04-01T21:37:22.706Z,15.98
2019-04-01T21:39:53.826Z,25.65
2019-04-01T21:42:24.914Z,27.87
2019-04-01T21:44:56.398Z,7.87
2019-04-01T21:47:27.426Z,17.90
2019-04-01T21:49:58.862Z,18.73
2019-04-01T21:52:30.025Z,17.30
2019-04-01T21:55:01.259Z,20.97
2019-04-01T21:57:35.772Z,27.20
2019-04-01T22:00:10.160Z,30.97
2019-04-01T22:05:15.061Z,18.67
2019-04-01T22:07:46.384Z,20.52
2019-04-01T22:10:17.611Z,12.73
2019-04-01T22:12:52.543Z,19.55
2019-04-01T22:15:23.434Z,25.23
2019-04-01T22:17:54.784Z,18.17
2019-04-01T22:20:25.930Z,16.02
2019-04-01T22:22:57.026Z,17.40
2019-04-01T22:25:29.133Z,15.98
2019-04-01T22:28:02.523Z,10.75
2019-04-01T22:30:33.766Z,12.10
2019-04-01T22:33:04.910Z,20.65
2019-04-01T22:35:39.101Z,16.82
2019-04-01T22:38:09.072Z,25.95
2019-04-01T22:40:40.384Z,16.52
2019-04-01T22:43:11.721Z,20.80
2019-04-01T22:45:42.964Z,13.20
2019-04-01T22:48:17.651Z,20.82
2019-04-01T22:50:49.158Z,18.40
2019-04-01T22:53:20.403Z,15.68
2019-04-01T22:55:51.510Z,13.70
2019-04-01T22:58:22.685Z,17.52
2019-04-01T23:00:53.872Z,20.57
2019-04-01T23:03:25.213Z,21.75
2019-04-01T23:05:56.544Z,17.67
2019-04-01T23:08:27.759Z,16.40
2019-04-01T23:10:58.979Z,24.27
2019-04-01T23:13:30.244Z,25.88
2019-04-01T23:16:01.712Z,19.25
2019-04-01T23:18:32.968Z,19.37
2019-04-01T23:21:04.118Z,18.77
2019-04-01T23:23:36.271Z,29.12
2019-04-01T23:26:07.475Z,11.60
2019-04-01T23:28:38.521Z,22.32
2019-04-01T23:31:09.670Z,28.05
2019-04-01T23:33:40.704Z,30.72
2019-04-01T23:36:12.322Z,28.75
2019-04-01T23:38:44.083Z,13.75
2019-04-01T23:41:15.173Z,17.45
2019-04-01T23:43:46.310Z,24.75
2019-04-01T23:46:18.977Z,12.98
2019-04-01T23:48:50.265Z,17.10
2019-04-01T23:51:21.610Z,12.20
2019-04-01T23:53:52.957Z,11.10
2019-04-01T23:56:24.096Z,14.38
2019-04-01T23:58:56.036Z,12.58
